sensor_id;sensor_type;location;lat;lon;timestamp;P1;durP1;ratioP1;P2;durP2;ratioP2
14704;SDS011;7442;50.840;3.396;2022-08-19T00:01:57;6.30;;;5.78;;
14704;SDS011;7442;50.840;3.396;2022-08-19T00:04:34;6.22;;;5.62;;
14704;SDS011;7442;50.840;3.396;2022-08-19T00:07:08;6.00;;;5.50;;
14704;SDS011;7442;50.840;3.396;2022-08-19T00:09:46;5.80;;;5.30;;
14704;SDS011;7442;50.840;3.396;2022-08-19T00:12:16;7.45;;;5.65;;
14704;SDS011;7442;50.840;3.396;2022-08-19T00:14:46;6.20;;;5.70;;
14704;SDS011;7442;50.840;3.396;2022-08-19T00:17:23;5.35;;;4.95;;
14704;SDS011;7442;50.840;3.396;2022-08-19T00:19:53;5.78;;;5.08;;
14704;SDS011;7442;50.840;3.396;2022-08-19T00:22:33;6.22;;;5.62;;
14704;SDS011;7442;50.840;3.396;2022-08-19T00:25:03;6.62;;;6.03;;
14704;SDS011;7442;50.840;3.396;2022-08-19T00:27:41;5.83;;;5.33;;
14704;SDS011;7442;50.840;3.396;2022-08-19T00:30:17;5.50;;;5.10;;
14704;SDS011;7442;50.840;3.396;2022-08-19T00:32:47;6.78;;;5.37;;
14704;SDS011;7442;50.840;3.396;2022-08-19T00:35:19;5.83;;;5.37;;
14704;SDS011;7442;50.840;3.396;2022-08-19T00:37:49;5.95;;;5.47;;
14704;SDS011;7442;50.840;3.396;2022-08-19T00:40:26;6.25;;;5.65;;
14704;SDS011;7442;50.840;3.396;2022-08-19T00:43:10;6.08;;;5.58;;
14704;SDS011;7442;50.840;3.396;2022-08-19T00:45:47;6.58;;;5.62;;
14704;SDS011;7442;50.840;3.396;2022-08-19T00:48:26;5.83;;;5.33;;
14704;SDS011;7442;50.840;3.396;2022-08-19T00:51:02;5.60;;;5.15;;
14704;SDS011;7442;50.840;3.396;2022-08-19T00:53:42;6.58;;;5.35;;
14704;SDS011;7442;50.840;3.396;2022-08-19T00:56:18;5.87;;;4.72;;
14704;SDS011;7442;50.840;3.396;2022-08-19T00:58:56;5.25;;;4.85;;
14704;SDS011;7442;50.840;3.396;2022-08-19T01:01:27;5.62;;;5.03;;
14704;SDS011;7442;50.840;3.396;2022-08-19T01:04:04;5.45;;;4.95;;
14704;SDS011;7442;50.840;3.396;2022-08-19T01:06:40;5.22;;;4.80;;
14704;SDS011;7442;50.840;3.396;2022-08-19T01:09:11;5.83;;;5.22;;
14704;SDS011;7442;50.840;3.396;2022-08-19T01:11:41;5.33;;;4.92;;
14704;SDS011;7442;50.840;3.396;2022-08-19T01:14:13;5.53;;;5.05;;
14704;SDS011;7442;50.840;3.396;2022-08-19T01:16:45;5.03;;;4.62;;
14704;SDS011;7442;50.840;3.396;2022-08-19T01:19:27;6.33;;;4.85;;
14704;SDS011;7442;50.840;3.396;2022-08-19T01:22:04;5.17;;;4.75;;
14704;SDS011;7442;50.840;3.396;2022-08-19T01:24:41;5.00;;;4.60;;
14704;SDS011;7442;50.840;3.396;2022-08-19T01:27:11;5.15;;;4.65;;
14704;SDS011;7442;50.840;3.396;2022-08-19T01:29:47;5.22;;;4.72;;
14704;SDS011;7442;50.840;3.396;2022-08-19T01:32:24;5.33;;;4.87;;
14704;SDS011;7442;50.840;3.396;2022-08-19T01:34:56;5.15;;;4.70;;
14704;SDS011;7442;50.840;3.396;2022-08-19T01:37:46;5.05;;;4.55;;
14704;SDS011;7442;50.840;3.396;2022-08-19T01:40:24;4.87;;;4.47;;
14704;SDS011;7442;50.840;3.396;2022-08-19T01:42:58;5.40;;;4.90;;
14704;SDS011;7442;50.840;3.396;2022-08-19T01:45:31;5.35;;;4.87;;
14704;SDS011;7442;50.840;3.396;2022-08-19T01:48:02;4.90;;;4.50;;
14704;SDS011;7442;50.840;3.396;2022-08-19T01:50:35;5.08;;;4.67;;
14704;SDS011;7442;50.840;3.396;2022-08-19T01:53:11;4.80;;;4.40;;
14704;SDS011;7442;50.840;3.396;2022-08-19T01:55:42;5.08;;;4.50;;
14704;SDS011;7442;50.840;3.396;2022-08-19T01:58:17;4.75;;;4.33;;
14704;SDS011;7442;50.840;3.396;2022-08-19T02:00:55;5.25;;;4.75;;
14704;SDS011;7442;50.840;3.396;2022-08-19T02:03:32;5.37;;;4.87;;
14704;SDS011;7442;50.840;3.396;2022-08-19T02:06:03;4.67;;;4.22;;
14704;SDS011;7442;50.840;3.396;2022-08-19T02:08:39;4.42;;;4.03;;
14704;SDS011;7442;50.840;3.396;2022-08-19T02:11:26;4.70;;;4.30;;
14704;SDS011;7442;50.840;3.396;2022-08-19T02:14:06;4.85;;;4.30;;
14704;SDS011;7442;50.840;3.396;2022-08-19T02:16:37;4.47;;;4.08;;
14704;SDS011;7442;50.840;3.396;2022-08-19T02:19:09;5.00;;;4.60;;
14704;SDS011;7442;50.840;3.396;2022-08-19T02:21:39;4.65;;;4.12;;
14704;SDS011;7442;50.840;3.396;2022-08-19T02:24:16;4.85;;;4.45;;
14704;SDS011;7442;50.840;3.396;2022-08-19T02:26:52;4.78;;;4.30;;
14704;SDS011;7442;50.840;3.396;2022-08-19T02:29:23;4.50;;;4.10;;
14704;SDS011;7442;50.840;3.396;2022-08-19T02:31:59;4.37;;;3.70;;
14704;SDS011;7442;50.840;3.396;2022-08-19T02:34:36;4.45;;;4.05;;
14704;SDS011;7442;50.840;3.396;2022-08-19T02:37:06;5.03;;;4.53;;
14704;SDS011;7442;50.840;3.396;2022-08-19T02:39:44;4.50;;;4.10;;
14704;SDS011;7442;50.840;3.396;2022-08-19T02:42:14;4.53;;;4.15;;
14704;SDS011;7442;50.840;3.396;2022-08-19T02:44:51;4.40;;;4.00;;
14704;SDS011;7442;50.840;3.396;2022-08-19T02:47:22;4.30;;;3.90;;
14704;SDS011;7442;50.840;3.396;2022-08-19T02:49:58;4.03;;;3.70;;
14704;SDS011;7442;50.840;3.396;2022-08-19T02:52:33;4.78;;;4.28;;
14704;SDS011;7442;50.840;3.396;2022-08-19T02:55:09;4.37;;;3.83;;
14704;SDS011;7442;50.840;3.396;2022-08-19T02:57:43;4.10;;;3.80;;
14704;SDS011;7442;50.840;3.396;2022-08-19T03:00:14;4.53;;;4.10;;
14704;SDS011;7442;50.840;3.396;2022-08-19T03:02:45;3.72;;;3.42;;
14704;SDS011;7442;50.840;3.396;2022-08-19T03:05:22;4.12;;;3.72;;
14704;SDS011;7442;50.840;3.396;2022-08-19T03:07:54;3.90;;;3.60;;
14704;SDS011;7442;50.840;3.396;2022-08-19T03:10:24;4.20;;;3.90;;
14704;SDS011;7442;50.840;3.396;2022-08-19T03:13:07;4.62;;;4.22;;
14704;SDS011;7442;50.840;3.396;2022-08-19T03:15:43;4.70;;;4.05;;
14704;SDS011;7442;50.840;3.396;2022-08-19T03:18:16;4.12;;;3.80;;
14704;SDS011;7442;50.840;3.396;2022-08-19T03:20:51;3.70;;;3.40;;
14704;SDS011;7442;50.840;3.396;2022-08-19T03:23:22;3.83;;;3.50;;
14704;SDS011;7442;50.840;3.396;2022-08-19T03:25:59;4.53;;;4.12;;
14704;SDS011;7442;50.840;3.396;2022-08-19T03:28:38;4.15;;;3.80;;
14704;SDS011;7442;50.840;3.396;2022-08-19T03:31:10;3.67;;;3.37;;
14704;SDS011;7442;50.840;3.396;2022-08-19T03:33:47;3.70;;;3.40;;
14704;SDS011;7442;50.840;3.396;2022-08-19T03:36:26;3.65;;;3.35;;
14704;SDS011;7442;50.840;3.396;2022-08-19T03:38:59;4.85;;;3.90;;
14704;SDS011;7442;50.840;3.396;2022-08-19T03:41:36;4.33;;;3.40;;
14704;SDS011;7442;50.840;3.396;2022-08-19T03:44:07;4.75;;;3.15;;
14704;SDS011;7442;50.840;3.396;2022-08-19T03:46:41;3.90;;;3.55;;
14704;SDS011;7442;50.840;3.396;2022-08-19T03:49:18;3.62;;;3.30;;
14704;SDS011;7442;50.840;3.396;2022-08-19T03:51:56;3.87;;;3.52;;
14704;SDS011;7442;50.840;3.396;2022-08-19T03:54:28;4.40;;;4.00;;
14704;SDS011;7442;50.840;3.396;2022-08-19T03:56:58;3.67;;;3.37;;
14704;SDS011;7442;50.840;3.396;2022-08-19T03:59:35;3.90;;;3.50;;
14704;SDS011;7442;50.840;3.396;2022-08-19T04:02:12;3.75;;;3.40;;
14704;SDS011;7442;50.840;3.396;2022-08-19T04:04:44;4.17;;;3.77;;
14704;SDS011;7442;50.840;3.396;2022-08-19T04:07:14;3.70;;;3.40;;
14704;SDS011;7442;50.840;3.396;2022-08-19T04:09:46;3.90;;;3.60;;
14704;SDS011;7442;50.840;3.396;2022-08-19T04:12:25;3.98;;;3.67;;
14704;SDS011;7442;50.840;3.396;2022-08-19T04:15:03;4.70;;;3.50;;
14704;SDS011;7442;50.840;3.396;2022-08-19T04:17:34;3.20;;;2.90;;
14704;SDS011;7442;50.840;3.396;2022-08-19T04:20:04;3.45;;;3.12;;
14704;SDS011;7442;50.840;3.396;2022-08-19T04:22:34;4.78;;;3.35;;
14704;SDS011;7442;50.840;3.396;2022-08-19T04:25:08;3.33;;;3.02;;
14704;SDS011;7442;50.840;3.396;2022-08-19T04:27:46;3.15;;;2.95;;
14704;SDS011;7442;50.840;3.396;2022-08-19T04:30:16;4.03;;;3.62;;
14704;SDS011;7442;50.840;3.396;2022-08-19T04:32:50;3.52;;;3.22;;
14704;SDS011;7442;50.840;3.396;2022-08-19T04:35:20;3.20;;;2.87;;
14704;SDS011;7442;50.840;3.396;2022-08-19T04:37:57;3.70;;;3.40;;
14704;SDS011;7442;50.840;3.396;2022-08-19T04:40:34;3.22;;;2.92;;
14704;SDS011;7442;50.840;3.396;2022-08-19T04:43:31;3.45;;;3.12;;
14704;SDS011;7442;50.840;3.396;2022-08-19T04:46:11;2.98;;;2.77;;
14704;SDS011;7442;50.840;3.396;2022-08-19T04:48:44;3.55;;;3.00;;
14704;SDS011;7442;50.840;3.396;2022-08-19T04:51:15;3.05;;;2.85;;
14704;SDS011;7442;50.840;3.396;2022-08-19T04:53:45;4.15;;;3.05;;
14704;SDS011;7442;50.840;3.396;2022-08-19T04:56:22;4.28;;;3.47;;
14704;SDS011;7442;50.840;3.396;2022-08-19T04:58:54;3.30;;;2.98;;
14704;SDS011;7442;50.840;3.396;2022-08-19T05:01:32;3.50;;;3.20;;
14704;SDS011;7442;50.840;3.396;2022-08-19T05:04:05;3.15;;;2.80;;
14704;SDS011;7442;50.840;3.396;2022-08-19T05:06:42;3.27;;;2.95;;
14704;SDS011;7442;50.840;3.396;2022-08-19T05:09:12;3.12;;;2.92;;
14704;SDS011;7442;50.840;3.396;2022-08-19T05:11:50;3.40;;;3.10;;
14704;SDS011;7442;50.840;3.396;2022-08-19T05:14:27;3.77;;;2.92;;
14704;SDS011;7442;50.840;3.396;2022-08-19T05:17:02;3.27;;;2.98;;
14704;SDS011;7442;50.840;3.396;2022-08-19T05:19:32;3.62;;;3.10;;
14704;SDS011;7442;50.840;3.396;2022-08-19T05:22:20;3.42;;;2.92;;
14704;SDS011;7442;50.840;3.396;2022-08-19T05:25:05;5.15;;;2.80;;
14704;SDS011;7442;50.840;3.396;2022-08-19T05:27:42;5.03;;;2.87;;
14704;SDS011;7442;50.840;3.396;2022-08-19T05:30:15;3.15;;;2.85;;
14704;SDS011;7442;50.840;3.396;2022-08-19T05:32:48;3.30;;;2.75;;
14704;SDS011;7442;50.840;3.396;2022-08-19T05:35:17;6.05;;;3.30;;
14704;SDS011;7442;50.840;3.396;2022-08-19T05:37:48;5.12;;;2.80;;
14704;SDS011;7442;50.840;3.396;2022-08-19T05:40:18;6.15;;;3.08;;
14704;SDS011;7442;50.840;3.396;2022-08-19T05:42:54;7.87;;;4.05;;
14704;SDS011;7442;50.840;3.396;2022-08-19T05:45:25;6.67;;;3.85;;
14704;SDS011;7442;50.840;3.396;2022-08-19T05:47:56;9.10;;;3.40;;
14704;SDS011;7442;50.840;3.396;2022-08-19T05:50:28;7.85;;;3.55;;
14704;SDS011;7442;50.840;3.396;2022-08-19T05:53:05;7.78;;;3.33;;
14704;SDS011;7442;50.840;3.396;2022-08-19T05:55:43;4.70;;;3.10;;
14704;SDS011;7442;50.840;3.396;2022-08-19T05:58:13;4.87;;;3.10;;
14704;SDS011;7442;50.840;3.396;2022-08-19T06:00:43;5.78;;;2.60;;
14704;SDS011;7442;50.840;3.396;2022-08-19T06:03:14;4.87;;;2.85;;
14704;SDS011;7442;50.840;3.396;2022-08-19T06:05:50;4.53;;;3.05;;
14704;SDS011;7442;50.840;3.396;2022-08-19T06:08:22;5.80;;;2.85;;
14704;SDS011;7442;50.840;3.396;2022-08-19T06:10:52;4.50;;;3.00;;
14704;SDS011;7442;50.840;3.396;2022-08-19T06:13:29;2.90;;;2.55;;
14704;SDS011;7442;50.840;3.396;2022-08-19T06:15:59;4.15;;;3.00;;
14704;SDS011;7442;50.840;3.396;2022-08-19T06:18:29;3.87;;;2.60;;
14704;SDS011;7442;50.840;3.396;2022-08-19T06:21:00;3.42;;;2.75;;
14704;SDS011;7442;50.840;3.396;2022-08-19T06:23:37;3.87;;;2.92;;
14704;SDS011;7442;50.840;3.396;2022-08-19T06:26:11;3.92;;;2.90;;
14704;SDS011;7442;50.840;3.396;2022-08-19T06:28:47;6.97;;;3.17;;
14704;SDS011;7442;50.840;3.396;2022-08-19T06:34:05;3.70;;;2.50;;
14704;SDS011;7442;50.840;3.396;2022-08-19T06:36:33;4.28;;;2.70;;
14704;SDS011;7442;50.840;3.396;2022-08-19T06:39:10;4.75;;;2.65;;
14704;SDS011;7442;50.840;3.396;2022-08-19T06:41:45;4.12;;;3.02;;
14704;SDS011;7442;50.840;3.396;2022-08-19T06:44:24;4.40;;;2.83;;
14704;SDS011;7442;50.840;3.396;2022-08-19T06:46:55;5.72;;;2.95;;
14704;SDS011;7442;50.840;3.396;2022-08-19T06:49:32;4.00;;;2.65;;
14704;SDS011;7442;50.840;3.396;2022-08-19T06:52:03;4.53;;;3.12;;
14704;SDS011;7442;50.840;3.396;2022-08-19T06:54:34;4.33;;;2.92;;
14704;SDS011;7442;50.840;3.396;2022-08-19T06:57:05;5.97;;;2.90;;
14704;SDS011;7442;50.840;3.396;2022-08-19T06:59:43;4.55;;;2.98;;
14704;SDS011;7442;50.840;3.396;2022-08-19T07:02:14;6.97;;;2.77;;
14704;SDS011;7442;50.840;3.396;2022-08-19T07:04:44;6.05;;;3.17;;
14704;SDS011;7442;50.840;3.396;2022-08-19T07:07:16;4.42;;;2.55;;
14704;SDS011;7442;50.840;3.396;2022-08-19T07:09:46;4.62;;;2.98;;
14704;SDS011;7442;50.840;3.396;2022-08-19T07:12:19;4.55;;;2.70;;
14704;SDS011;7442;50.840;3.396;2022-08-19T07:14:49;4.28;;;2.70;;
14704;SDS011;7442;50.840;3.396;2022-08-19T07:17:20;6.12;;;3.10;;
14704;SDS011;7442;50.840;3.396;2022-08-19T07:20:01;3.72;;;2.40;;
14704;SDS011;7442;50.840;3.396;2022-08-19T07:22:38;4.92;;;2.62;;
14704;SDS011;7442;50.840;3.396;2022-08-19T07:25:16;4.17;;;2.90;;
14704;SDS011;7442;50.840;3.396;2022-08-19T07:27:52;6.58;;;2.60;;
14704;SDS011;7442;50.840;3.396;2022-08-19T07:30:28;4.35;;;2.95;;
14704;SDS011;7442;50.840;3.396;2022-08-19T07:32:59;3.05;;;2.50;;
14704;SDS011;7442;50.840;3.396;2022-08-19T07:35:35;3.22;;;2.85;;
14704;SDS011;7442;50.840;3.396;2022-08-19T07:38:06;3.42;;;2.47;;
14704;SDS011;7442;50.840;3.396;2022-08-19T07:40:42;3.72;;;2.67;;
14704;SDS011;7442;50.840;3.396;2022-08-19T07:43:15;3.45;;;2.50;;
14704;SDS011;7442;50.840;3.396;2022-08-19T07:45:45;3.50;;;2.22;;
14704;SDS011;7442;50.840;3.396;2022-08-19T07:48:19;6.17;;;2.67;;
14704;SDS011;7442;50.840;3.396;2022-08-19T07:50:54;7.75;;;2.52;;
14704;SDS011;7442;50.840;3.396;2022-08-19T07:53:30;10.25;;;2.87;;
14704;SDS011;7442;50.840;3.396;2022-08-19T07:56:04;5.12;;;2.87;;
14704;SDS011;7442;50.840;3.396;2022-08-19T07:58:42;5.67;;;2.83;;
14704;SDS011;7442;50.840;3.396;2022-08-19T08:01:15;6.97;;;3.35;;
14704;SDS011;7442;50.840;3.396;2022-08-19T08:03:52;7.25;;;3.08;;
14704;SDS011;7442;50.840;3.396;2022-08-19T08:06:48;7.70;;;3.10;;
14704;SDS011;7442;50.840;3.396;2022-08-19T08:09:37;5.78;;;2.98;;
14704;SDS011;7442;50.840;3.396;2022-08-19T08:12:10;7.42;;;3.05;;
14704;SDS011;7442;50.840;3.396;2022-08-19T08:14:48;8.33;;;3.15;;
14704;SDS011;7442;50.840;3.396;2022-08-19T08:17:27;13.35;;;3.00;;
14704;SDS011;7442;50.840;3.396;2022-08-19T08:20:05;7.85;;;2.92;;
14704;SDS011;7442;50.840;3.396;2022-08-19T08:22:35;9.88;;;2.75;;
14704;SDS011;7442;50.840;3.396;2022-08-19T08:25:24;6.83;;;2.98;;
14704;SDS011;7442;50.840;3.396;2022-08-19T08:27:54;7.00;;;3.15;;
14704;SDS011;7442;50.840;3.396;2022-08-19T08:30:25;5.17;;;2.42;;
14704;SDS011;7442;50.840;3.396;2022-08-19T08:32:56;5.08;;;2.70;;
14704;SDS011;7442;50.840;3.396;2022-08-19T08:35:29;6.00;;;2.77;;
14704;SDS011;7442;50.840;3.396;2022-08-19T08:37:59;5.62;;;2.80;;
14704;SDS011;7442;50.840;3.396;2022-08-19T08:40:48;6.58;;;2.98;;
14704;SDS011;7442;50.840;3.396;2022-08-19T08:43:29;4.67;;;2.42;;
14704;SDS011;7442;50.840;3.396;2022-08-19T08:46:22;4.70;;;2.80;;
14704;SDS011;7442;50.840;3.396;2022-08-19T08:48:59;3.83;;;2.25;;
14704;SDS011;7442;50.840;3.396;2022-08-19T08:51:47;4.67;;;2.00;;
14704;SDS011;7442;50.840;3.396;2022-08-19T08:54:22;3.62;;;2.20;;
14704;SDS011;7442;50.840;3.396;2022-08-19T08:56:54;3.25;;;2.20;;
14704;SDS011;7442;50.840;3.396;2022-08-19T08:59:30;2.98;;;1.70;;
14704;SDS011;7442;50.840;3.396;2022-08-19T09:02:01;2.37;;;1.62;;
14704;SDS011;7442;50.840;3.396;2022-08-19T09:04:37;3.40;;;1.75;;
14704;SDS011;7442;50.840;3.396;2022-08-19T09:07:26;2.52;;;1.42;;
14704;SDS011;7442;50.840;3.396;2022-08-19T09:10:02;2.95;;;1.77;;
14704;SDS011;7442;50.840;3.396;2022-08-19T09:12:41;6.50;;;2.00;;
14704;SDS011;7442;50.840;3.396;2022-08-19T09:15:14;4.62;;;1.70;;
14704;SDS011;7442;50.840;3.396;2022-08-19T09:17:47;4.00;;;1.52;;
14704;SDS011;7442;50.840;3.396;2022-08-19T09:20:20;2.12;;;1.50;;
14704;SDS011;7442;50.840;3.396;2022-08-19T09:22:51;3.20;;;1.50;;
14704;SDS011;7442;50.840;3.396;2022-08-19T09:25:21;3.85;;;1.30;;
14704;SDS011;7442;50.840;3.396;2022-08-19T09:27:52;6.17;;;1.45;;
14704;SDS011;7442;50.840;3.396;2022-08-19T09:30:26;4.17;;;1.67;;
14704;SDS011;7442;50.840;3.396;2022-08-19T09:32:58;3.55;;;1.37;;
14704;SDS011;7442;50.840;3.396;2022-08-19T09:35:29;1.95;;;1.20;;
14704;SDS011;7442;50.840;3.396;2022-08-19T09:37:59;1.87;;;1.20;;
14704;SDS011;7442;50.840;3.396;2022-08-19T09:40:30;1.10;;;0.88;;
14704;SDS011;7442;50.840;3.396;2022-08-19T09:43:00;4.70;;;1.10;;
14704;SDS011;7442;50.840;3.396;2022-08-19T09:45:30;8.53;;;1.07;;
14704;SDS011;7442;50.840;3.396;2022-08-19T09:48:01;5.60;;;1.15;;
14704;SDS011;7442;50.840;3.396;2022-08-19T09:50:32;2.87;;;0.85;;
14704;SDS011;7442;50.840;3.396;2022-08-19T09:53:03;1.20;;;0.85;;
14704;SDS011;7442;50.840;3.396;2022-08-19T09:55:34;1.22;;;0.88;;
14704;SDS011;7442;50.840;3.396;2022-08-19T09:58:04;2.10;;;0.72;;
14704;SDS011;7442;50.840;3.396;2022-08-19T10:00:36;1.45;;;0.65;;
14704;SDS011;7442;50.840;3.396;2022-08-19T10:03:07;1.17;;;0.57;;
14704;SDS011;7442;50.840;3.396;2022-08-19T10:05:37;3.75;;;0.80;;
14704;SDS011;7442;50.840;3.396;2022-08-19T10:08:18;2.20;;;1.00;;
14704;SDS011;7442;50.840;3.396;2022-08-19T10:10:56;1.20;;;0.53;;
14704;SDS011;7442;50.840;3.396;2022-08-19T10:13:28;2.70;;;0.75;;
14704;SDS011;7442;50.840;3.396;2022-08-19T10:16:04;1.12;;;0.50;;
14704;SDS011;7442;50.840;3.396;2022-08-19T10:18:36;1.10;;;0.53;;
14704;SDS011;7442;50.840;3.396;2022-08-19T10:21:16;3.52;;;1.12;;
14704;SDS011;7442;50.840;3.396;2022-08-19T10:23:48;1.22;;;0.50;;
14704;SDS011;7442;50.840;3.396;2022-08-19T10:26:21;1.65;;;0.55;;
14704;SDS011;7442;50.840;3.396;2022-08-19T10:28:56;2.65;;;1.05;;
14704;SDS011;7442;50.840;3.396;2022-08-19T10:31:28;1.92;;;0.88;;
14704;SDS011;7442;50.840;3.396;2022-08-19T10:34:00;3.67;;;0.95;;
14704;SDS011;7442;50.840;3.396;2022-08-19T10:36:31;5.90;;;1.17;;
14704;SDS011;7442;50.840;3.396;2022-08-19T10:39:05;5.10;;;1.20;;
14704;SDS011;7442;50.840;3.396;2022-08-19T10:41:37;6.37;;;1.37;;
14704;SDS011;7442;50.840;3.396;2022-08-19T10:44:09;2.47;;;1.10;;
14704;SDS011;7442;50.840;3.396;2022-08-19T10:46:42;2.50;;;1.17;;
14704;SDS011;7442;50.840;3.396;2022-08-19T10:49:15;2.05;;;1.22;;
14704;SDS011;7442;50.840;3.396;2022-08-19T10:51:47;7.87;;;1.00;;
14704;SDS011;7442;50.840;3.396;2022-08-19T10:54:35;3.27;;;0.80;;
14704;SDS011;7442;50.840;3.396;2022-08-19T10:57:23;3.75;;;1.10;;
14704;SDS011;7442;50.840;3.396;2022-08-19T10:59:55;2.80;;;1.00;;
14704;SDS011;7442;50.840;3.396;2022-08-19T11:02:26;5.40;;;0.88;;
14704;SDS011;7442;50.840;3.396;2022-08-19T11:04:57;4.08;;;0.88;;
14704;SDS011;7442;50.840;3.396;2022-08-19T11:07:27;1.55;;;0.78;;
14704;SDS011;7442;50.840;3.396;2022-08-19T11:09:57;4.40;;;1.07;;
14704;SDS011;7442;50.840;3.396;2022-08-19T11:12:27;0.90;;;0.60;;
14704;SDS011;7442;50.840;3.396;2022-08-19T11:14:57;1.70;;;0.70;;
14704;SDS011;7442;50.840;3.396;2022-08-19T11:17:28;2.17;;;0.90;;
14704;SDS011;7442;50.840;3.396;2022-08-19T11:19:59;1.72;;;0.70;;
14704;SDS011;7442;50.840;3.396;2022-08-19T11:22:31;1.67;;;0.70;;
14704;SDS011;7442;50.840;3.396;2022-08-19T11:25:01;3.02;;;0.85;;
14704;SDS011;7442;50.840;3.396;2022-08-19T11:27:32;2.52;;;0.70;;
14704;SDS011;7442;50.840;3.396;2022-08-19T11:30:02;1.25;;;0.75;;
14704;SDS011;7442;50.840;3.396;2022-08-19T11:32:33;2.17;;;0.80;;
14704;SDS011;7442;50.840;3.396;2022-08-19T11:35:03;0.50;;;0.47;;
14704;SDS011;7442;50.840;3.396;2022-08-19T11:37:33;6.60;;;0.75;;
14704;SDS011;7442;50.840;3.396;2022-08-19T11:40:05;1.62;;;0.60;;
14704;SDS011;7442;50.840;3.396;2022-08-19T11:42:36;1.27;;;0.53;;
14704;SDS011;7442;50.840;3.396;2022-08-19T11:45:25;1.05;;;0.62;;
14704;SDS011;7442;50.840;3.396;2022-08-19T11:47:57;1.22;;;0.60;;
14704;SDS011;7442;50.840;3.396;2022-08-19T11:50:27;2.35;;;0.90;;
14704;SDS011;7442;50.840;3.396;2022-08-19T11:52:57;0.82;;;0.50;;
14704;SDS011;7442;50.840;3.396;2022-08-19T11:55:28;2.72;;;0.78;;
14704;SDS011;7442;50.840;3.396;2022-08-19T11:58:04;1.50;;;0.35;;
14704;SDS011;7442;50.840;3.396;2022-08-19T12:00:35;1.40;;;0.75;;
14704;SDS011;7442;50.840;3.396;2022-08-19T12:03:08;1.30;;;0.65;;
14704;SDS011;7442;50.840;3.396;2022-08-19T12:05:39;2.75;;;0.80;;
14704;SDS011;7442;50.840;3.396;2022-08-19T12:08:11;1.27;;;0.70;;
14704;SDS011;7442;50.840;3.396;2022-08-19T12:10:41;3.15;;;1.10;;
14704;SDS011;7442;50.840;3.396;2022-08-19T12:13:13;1.72;;;0.80;;
14704;SDS011;7442;50.840;3.396;2022-08-19T12:15:46;2.27;;;0.70;;
14704;SDS011;7442;50.840;3.396;2022-08-19T12:18:18;2.02;;;0.88;;
14704;SDS011;7442;50.840;3.396;2022-08-19T12:20:55;2.12;;;0.65;;
14704;SDS011;7442;50.840;3.396;2022-08-19T12:23:25;3.52;;;0.95;;
14704;SDS011;7442;50.840;3.396;2022-08-19T12:26:01;1.75;;;0.90;;
14704;SDS011;7442;50.840;3.396;2022-08-19T12:28:32;1.37;;;0.80;;
14704;SDS011;7442;50.840;3.396;2022-08-19T12:31:02;2.47;;;0.90;;
14704;SDS011;7442;50.840;3.396;2022-08-19T12:33:33;2.90;;;1.10;;
14704;SDS011;7442;50.840;3.396;2022-08-19T12:36:08;3.45;;;1.07;;
14704;SDS011;7442;50.840;3.396;2022-08-19T12:38:40;3.95;;;0.98;;
14704;SDS011;7442;50.840;3.396;2022-08-19T12:41:14;1.25;;;1.02;;
14704;SDS011;7442;50.840;3.396;2022-08-19T12:43:46;2.37;;;1.00;;
14704;SDS011;7442;50.840;3.396;2022-08-19T12:46:18;3.33;;;0.60;;
14704;SDS011;7442;50.840;3.396;2022-08-19T12:48:48;3.55;;;1.10;;
14704;SDS011;7442;50.840;3.396;2022-08-19T12:51:20;1.55;;;1.00;;
14704;SDS011;7442;50.840;3.396;2022-08-19T12:53:50;1.22;;;1.02;;
14704;SDS011;7442;50.840;3.396;2022-08-19T12:56:20;2.40;;;1.00;;
14704;SDS011;7442;50.840;3.396;2022-08-19T12:58:50;4.55;;;1.37;;
14704;SDS011;7442;50.840;3.396;2022-08-19T13:01:26;2.58;;;0.93;;
14704;SDS011;7442;50.840;3.396;2022-08-19T13:03:59;4.03;;;1.27;;
14704;SDS011;7442;50.840;3.396;2022-08-19T13:06:29;3.55;;;1.22;;
14704;SDS011;7442;50.840;3.396;2022-08-19T13:08:59;2.95;;;1.12;;
14704;SDS011;7442;50.840;3.396;2022-08-19T13:11:31;3.25;;;1.02;;
14704;SDS011;7442;50.840;3.396;2022-08-19T13:14:02;4.12;;;1.17;;
14704;SDS011;7442;50.840;3.396;2022-08-19T13:16:35;3.20;;;1.30;;
14704;SDS011;7442;50.840;3.396;2022-08-19T13:19:09;3.20;;;1.12;;
14704;SDS011;7442;50.840;3.396;2022-08-19T13:21:40;3.52;;;1.20;;
14704;SDS011;7442;50.840;3.396;2022-08-19T13:24:10;4.37;;;1.60;;
14704;SDS011;7442;50.840;3.396;2022-08-19T13:26:40;2.15;;;1.15;;
14704;SDS011;7442;50.840;3.396;2022-08-19T13:29:10;2.95;;;1.45;;
14704;SDS011;7442;50.840;3.396;2022-08-19T13:31:58;6.10;;;1.30;;
14704;SDS011;7442;50.840;3.396;2022-08-19T13:34:46;3.45;;;1.50;;
14704;SDS011;7442;50.840;3.396;2022-08-19T13:37:16;4.85;;;1.67;;
14704;SDS011;7442;50.840;3.396;2022-08-19T13:39:48;2.72;;;1.42;;
14704;SDS011;7442;50.840;3.396;2022-08-19T13:42:18;5.45;;;1.60;;
14704;SDS011;7442;50.840;3.396;2022-08-19T13:44:48;5.55;;;1.65;;
14704;SDS011;7442;50.840;3.396;2022-08-19T13:47:18;3.60;;;1.42;;
14704;SDS011;7442;50.840;3.396;2022-08-19T13:49:49;4.08;;;1.40;;
14704;SDS011;7442;50.840;3.396;2022-08-19T13:52:19;4.33;;;1.70;;
14704;SDS011;7442;50.840;3.396;2022-08-19T13:54:49;4.67;;;1.40;;
14704;SDS011;7442;50.840;3.396;2022-08-19T13:57:19;5.60;;;1.60;;
14704;SDS011;7442;50.840;3.396;2022-08-19T13:59:49;8.33;;;1.72;;
14704;SDS011;7442;50.840;3.396;2022-08-19T14:02:20;3.80;;;1.30;;
14704;SDS011;7442;50.840;3.396;2022-08-19T14:04:50;3.08;;;1.05;;
14704;SDS011;7442;50.840;3.396;2022-08-19T14:07:21;2.42;;;1.47;;
14704;SDS011;7442;50.840;3.396;2022-08-19T14:09:53;4.35;;;1.30;;
14704;SDS011;7442;50.840;3.396;2022-08-19T14:12:23;4.85;;;1.42;;
14704;SDS011;7442;50.840;3.396;2022-08-19T14:14:53;1.80;;;1.10;;
14704;SDS011;7442;50.840;3.396;2022-08-19T14:17:23;2.65;;;1.20;;
14704;SDS011;7442;50.840;3.396;2022-08-19T14:20:00;2.05;;;1.02;;
14704;SDS011;7442;50.840;3.396;2022-08-19T14:22:38;2.27;;;1.00;;
14704;SDS011;7442;50.840;3.396;2022-08-19T14:25:11;2.12;;;1.00;;
14704;SDS011;7442;50.840;3.396;2022-08-19T14:27:43;2.08;;;1.00;;
14704;SDS011;7442;50.840;3.396;2022-08-19T14:30:15;4.83;;;1.02;;
14704;SDS011;7442;50.840;3.396;2022-08-19T14:32:47;3.10;;;0.90;;
14704;SDS011;7442;50.840;3.396;2022-08-19T14:35:17;3.83;;;1.02;;
14704;SDS011;7442;50.840;3.396;2022-08-19T14:37:47;2.42;;;1.17;;
14704;SDS011;7442;50.840;3.396;2022-08-19T14:40:19;2.27;;;0.90;;
14704;SDS011;7442;50.840;3.396;2022-08-19T14:42:52;2.67;;;0.70;;
14704;SDS011;7442;50.840;3.396;2022-08-19T14:45:27;4.72;;;1.22;;
14704;SDS011;7442;50.840;3.396;2022-08-19T14:47:57;2.15;;;1.00;;
14704;SDS011;7442;50.840;3.396;2022-08-19T14:50:30;2.87;;;0.80;;
14704;SDS011;7442;50.840;3.396;2022-08-19T14:53:02;1.98;;;0.90;;
14704;SDS011;7442;50.840;3.396;2022-08-19T14:55:34;1.87;;;0.80;;
14704;SDS011;7442;50.840;3.396;2022-08-19T14:58:04;3.75;;;1.10;;
14704;SDS011;7442;50.840;3.396;2022-08-19T15:00:37;1.62;;;0.90;;
14704;SDS011;7442;50.840;3.396;2022-08-19T15:03:07;1.45;;;0.80;;
14704;SDS011;7442;50.840;3.396;2022-08-19T15:05:37;3.00;;;0.82;;
14704;SDS011;7442;50.840;3.396;2022-08-19T15:08:07;3.52;;;0.80;;
14704;SDS011;7442;50.840;3.396;2022-08-19T15:10:38;2.08;;;0.82;;
14704;SDS011;7442;50.840;3.396;2022-08-19T15:13:15;2.62;;;0.85;;
14704;SDS011;7442;50.840;3.396;2022-08-19T15:15:46;1.67;;;0.82;;
14704;SDS011;7442;50.840;3.396;2022-08-19T15:18:17;1.70;;;0.70;;
14704;SDS011;7442;50.840;3.396;2022-08-19T15:20:48;3.52;;;0.98;;
14704;SDS011;7442;50.840;3.396;2022-08-19T15:23:19;1.27;;;0.70;;
14704;SDS011;7442;50.840;3.396;2022-08-19T15:25:50;2.87;;;0.90;;
14704;SDS011;7442;50.840;3.396;2022-08-19T15:28:24;1.47;;;0.72;;
14704;SDS011;7442;50.840;3.396;2022-08-19T15:30:55;2.90;;;1.32;;
14704;SDS011;7442;50.840;3.396;2022-08-19T15:33:27;5.08;;;0.80;;
14704;SDS011;7442;50.840;3.396;2022-08-19T15:35:59;2.17;;;0.78;;
14704;SDS011;7442;50.840;3.396;2022-08-19T15:38:29;1.65;;;0.85;;
14704;SDS011;7442;50.840;3.396;2022-08-19T15:40:59;1.42;;;1.07;;
14704;SDS011;7442;50.840;3.396;2022-08-19T15:43:49;3.30;;;1.00;;